Latest Weather Observations for Truscott

IDW60801

Issued at 2:05 pm WST Wednesday 22 October 2014 (issued every 30 minutes, with the page automatically refreshed every 10 minutes)

About weather observations | Map of weather stations | Latest weather observations for WA | Other Formats
Station Details ID: 001020 Name: TRUSCOTT Lat: -14.09 Lon: 126.39 Height: 51.0 m
Data from the previous 72 hours. | See also: Recent months at Truscott
Date/Time
WST
Temp
°C
App
Temp
°C
Dew
Point
Rel
Hum
%
Delta-T
°C
Wind Press
QNH
hPa
Press
MSL
hPa
Rain
since 9 am
mm
Dir
 
Spd
km/h
Gust
km/h
Spd
kts
Gust
kts
22/02:00pm 31.0 31.5 20.0 52 7.3 NNW 17 26 9 14 1011.0 - 0.0
22/01:30pm 32.0 33.1 22.0 55 6.8 NNW 19 19 10 10 1011.0 - 0.0
22/01:00pm 32.0 32.6 21.0 52 7.4 N 19 - 10 - 1011.0 - 0.0
22/12:30pm 31.0 31.6 21.0 55 6.7 N 19 - 10 - 1012.0 - 0.0
22/12:00pm 32.9 33.8 20.8 49 8.1 NNW 17 - 9 - 1012.0 1012.3 0.0
22/11:30am 33.0 34.5 22.0 52 7.5 N 17 - 9 - 1013.0 - 0.0
22/11:00am 32.0 32.9 20.0 49 8.0 NNW 15 - 8 - 1013.0 - 0.0
22/10:30am 32.0 33.2 20.0 49 8.0 N 13 - 7 - 1013.0 - 0.0
22/10:00am 32.0 32.8 19.0 46 8.5 NW 13 - 7 - 1014.0 - 0.0
22/09:30am 32.0 33.2 20.0 49 8.0 NW 13 - 7 - 1014.0 - 0.0
22/09:00am 31.0 33.0 20.0 52 7.3 NNW 9 - 5 - 1014.0 1014.0 0.0
22/08:30am 30.0 31.7 21.0 58 6.0 NW 13 - 7 - 1014.0 - 0.0
22/08:00am 29.0 31.6 22.0 66 4.7 WNW 11 - 6 - 1014.0 - 0.0
22/07:30am 28.0 31.0 22.0 70 4.0 WNW 9 - 5 - 1014.0 - 0.0
22/07:00am 28.0 33.3 23.0 74 3.4 CALM 0 - 0 - 1014.0 - 0.0
22/06:30am 27.0 32.3 23.0 79 2.7 CALM 0 - 0 - 1013.0 - 0.0
22/06:00am 26.3 30.5 23.2 83 2.1 WSW 6 - 3 - 1013.0 1012.8 0.0
22/05:30am 25.0 28.9 23.0 89 1.4 S 7 - 4 - 1013.0 - 0.0
22/05:00am 24.0 29.3 23.0 94 0.7 CALM 0 - 0 - 1012.0 - 0.0
22/04:30am 24.0 28.7 22.0 88 1.3 CALM 0 - 0 - 1012.0 - 0.0
22/04:00am 26.0 29.6 22.0 78 2.7 SW 6 - 3 - 1012.0 - 0.0
22/03:30am 26.0 29.9 23.0 83 2.0 W 7 - 4 - 1011.0 - 0.0
22/03:00am 26.3 30.2 23.0 82 2.2 W 7 - 4 - 1011.0 1011.2 0.0
22/02:30am 26.0 29.9 23.0 83 2.0 WSW 7 - 4 - 1011.0 - 0.0
22/02:00am 26.0 29.9 23.0 83 2.0 WSW 7 - 4 - 1011.0 - 0.0
22/01:30am 26.0 30.5 23.0 83 2.0 W 4 - 2 - 1011.0 - 0.0
22/01:00am 26.0 30.1 23.0 83 2.0 W 6 - 3 - 1011.0 - 0.0
22/12:30am 26.0 30.1 23.0 83 2.0 W 6 7 3 4 1012.0 - 0.0
22/12:00am 26.2 31.0 22.9 82 2.2 W 2 - 1 - 1013.0 1012.4 0.0
 
Date/Time
WST
Temp
°C
App
Temp
°C
Dew
Point
Rel
Hum
%
Delta-T
°C
Wind Press
QNH
hPa
Press
MSL
hPa
Rain
since 9 am
mm
Dir
 
Spd
km/h
Gust
km/h
Spd
kts
Gust
kts
21/11:30pm 27.0 30.9 23.0 79 2.7 WNW 7 - 4 - 1013.0 - 0.0
21/11:00pm 27.0 30.6 23.0 79 2.7 W 9 - 5 - 1013.0 - 0.0
21/10:30pm 27.0 31.1 23.0 79 2.7 WNW 6 - 3 - 1014.0 - 0.0
21/10:00pm 27.0 30.9 23.0 79 2.7 WNW 7 - 4 - 1014.0 - 0.0
21/09:30pm 27.0 30.9 23.0 79 2.7 WNW 7 - 4 - 1014.0 - 0.0
21/09:00pm 27.4 31.1 22.6 75 3.3 NW 7 - 4 - 1014.0 1013.8 0.0
21/08:30pm 28.0 31.9 23.0 74 3.4 NW 7 - 4 - 1014.0 - 0.0
21/08:00pm 28.0 31.6 23.0 74 3.4 NW 9 - 5 - 1014.0 - 0.0
21/07:30pm 28.0 31.6 23.0 74 3.4 NW 9 - 5 - 1014.0 - 0.0
21/07:00pm 28.0 31.9 23.0 74 3.4 NW 7 - 4 - 1014.0 - 0.0
21/06:30pm 28.0 31.2 23.0 74 3.4 NNW 11 - 6 - 1013.0 - 0.0
21/06:00pm 28.3 30.8 22.5 71 3.9 NNW 13 11 7 6 1013.0 1012.5 0.0
21/05:30pm 28.0 30.4 23.0 74 3.4 NNW 15 - 8 - 1012.0 - 0.0
21/05:00pm 29.0 30.9 22.0 66 4.7 NNW 15 - 8 - 1012.0 - 0.0
21/04:30pm 29.0 30.0 21.0 62 5.3 NNW 17 - 9 - 1012.0 - 0.0
21/04:00pm 30.0 30.6 21.0 58 6.0 NNW 19 - 10 - 1011.0 - 0.0
21/03:30pm 30.0 30.6 21.0 58 6.0 NNW 19 - 10 - 1011.0 - 0.0
21/03:00pm 30.6 31.6 21.7 59 6.0 NNW 19 - 10 - 1011.0 1011.1 0.0
21/02:30pm 31.0 31.6 21.0 55 6.7 NNW 19 - 10 - 1011.0 - 0.0
21/02:00pm 31.0 32.5 23.0 62 5.5 N 20 - 11 - 1012.0 - 0.0
21/01:30pm 31.0 31.9 22.0 58 6.1 NNW 20 - 11 - 1012.0 - 0.0
21/01:00pm 31.0 31.9 22.0 58 6.1 NNW 20 - 11 - 1012.0 - 0.0
21/12:30pm 31.0 33.0 23.0 62 5.5 NNW 17 - 9 - 1013.0 - 0.0
21/12:00pm 31.0 32.0 21.8 58 6.2 N 19 - 10 - 1013.0 1013.0 0.0
21/11:30am 32.0 33.0 21.0 52 7.4 N 17 - 9 - 1014.0 - 0.0
21/11:00am 31.0 31.4 21.0 55 6.7 N 20 - 11 - 1014.0 - 0.0
21/10:30am 32.0 32.6 21.0 52 7.4 NNW 19 - 10 - 1014.0 - 0.0
21/10:00am 31.0 33.0 23.0 62 5.5 NNW 17 - 9 - 1015.0 - 0.0
21/09:30am 31.0 32.9 22.0 58 6.1 NNW 15 - 8 - 1015.0 - 0.0
21/09:00am 30.9 33.5 21.9 58 6.1 NNW 11 - 6 - 1016.0 1015.6 0.0
21/08:30am 30.0 31.1 22.0 62 5.4 NNW 19 - 10 - 1015.0 - 0.0
21/08:00am 30.0 32.3 22.0 62 5.4 N 13 - 7 - 1015.0 - 0.0
21/07:30am 29.0 32.2 23.0 70 4.1 N 11 - 6 - 1015.0 - 0.0
21/07:00am 29.0 33.1 23.0 70 4.1 NNE 6 - 3 - 1015.0 - 0.0
21/06:30am 27.0 31.1 23.0 79 2.7 E 6 - 3 - 1015.0 - 0.0
21/06:00am 25.8 29.3 22.9 84 2.0 NE 9 - 5 - 1014.0 1014.0 0.0
21/05:30am 25.0 29.1 23.0 89 1.4 S 6 - 3 - 1013.0 - 0.0
21/05:00am 25.0 28.6 22.0 83 2.0 SSW 6 - 3 - 1013.0 - 0.0
21/04:30am 26.0 29.9 23.0 83 2.0 SW 7 - 4 - 1012.0 - 0.0
21/04:00am 27.0 30.2 23.0 79 2.7 SW 11 - 6 - 1012.0 - 0.0
21/03:30am 27.0 30.2 23.0 79 2.7 WSW 11 - 6 - 1012.0 - 0.0
21/03:00am 26.7 30.3 23.0 80 2.5 WSW 9 - 5 - 1012.0 1011.6 0.0
21/02:30am 27.0 30.9 23.0 79 2.7 WSW 7 - 4 - 1012.0 - 0.0
21/02:00am 27.0 30.9 23.0 79 2.7 SW 7 - 4 - 1012.0 - 0.0
21/01:30am 27.0 30.6 23.0 79 2.7 WSW 9 - 5 - 1011.0 - 0.0
21/01:00am 27.0 31.1 24.0 83 2.1 WSW 9 - 5 - 1012.0 - 0.0
21/12:30am 27.0 31.1 24.0 83 2.1 W 9 - 5 - 1012.0 - 0.0
21/12:00am 26.8 31.3 23.7 83 2.1 WSW 6 - 3 - 1012.0 1012.1 0.0
 
Date/Time
WST
Temp
°C
App
Temp
°C
Dew
Point
Rel
Hum
%
Delta-T
°C
Wind Press
QNH
hPa
Press
MSL
hPa
Rain
since 9 am
mm
Dir
 
Spd
km/h
Gust
km/h
Spd
kts
Gust
kts
20/11:30pm 27.0 31.7 24.0 83 2.1 WSW 6 - 3 - 1013.0 - 0.0
20/11:00pm 27.0 31.5 24.0 83 2.1 WSW 7 - 4 - 1013.0 - 0.0
20/10:30pm 27.0 31.1 23.0 79 2.7 W 6 - 3 - 1013.0 - 0.0
20/10:00pm 28.0 31.9 23.0 74 3.4 W 7 - 4 - 1013.0 - 0.0
20/09:30pm 28.0 31.6 23.0 74 3.4 W 9 - 5 - 1013.0 - 0.0
20/09:00pm 27.8 31.5 22.5 73 3.6 W 7 - 4 - 1013.0 1013.2 0.0
20/08:30pm 28.0 31.0 22.0 70 4.0 W 9 - 5 - 1013.0 - 0.0
20/08:00pm 28.0 31.0 22.0 70 4.0 W 9 - 5 - 1013.0 - 0.0
20/07:30pm 28.0 31.0 22.0 70 4.0 WNW 9 - 5 - 1013.0 - 0.0
20/07:00pm 28.0 30.3 22.0 70 4.0 WNW 13 - 7 - 1013.0 - 0.0
20/06:30pm 28.0 30.6 22.0 70 4.0 NW 11 - 6 - 1012.0 - 0.0
20/06:00pm 28.3 31.1 22.3 70 4.1 NW 11 - 6 - 1012.0 1012.1 0.0
20/05:30pm 29.0 31.3 22.0 66 4.7 NW 13 - 7 - 1012.0 - 0.0
20/05:00pm 29.0 30.9 22.0 66 4.7 NNW 15 - 8 - 1011.0 - 0.0
20/04:30pm 30.0 30.9 20.0 55 6.6 NW 15 - 8 - 1011.0 - 0.0
20/04:00pm 31.0 31.5 20.0 52 7.3 NNW 17 - 9 - 1011.0 - 0.0
20/03:30pm 32.0 32.3 18.0 43 9.0 NNW 13 - 7 - 1010.0 - 0.0
20/03:00pm 32.3 31.9 18.8 44 8.8 NNW 19 - 10 - 1011.0 1010.4 0.0
20/02:30pm 32.0 32.5 20.0 49 8.0 NNW 17 - 9 - 1011.0 - 0.0
20/02:00pm 32.0 32.1 20.0 49 8.0 NNW 19 - 10 - 1011.0 - 0.0
20/01:30pm 32.0 32.1 20.0 49 8.0 NNW 19 - 10 - 1011.0 - 0.0
20/01:00pm 32.0 32.6 21.0 52 7.4 NW 19 - 10 - 1011.0 - 0.0
20/12:30pm 32.0 33.0 21.0 52 7.4 NW 17 - 9 - 1012.0 - 0.0
20/12:00pm 32.1 33.5 21.0 52 7.5 WNW 15 - 8 - 1012.0 1012.3 0.0
20/11:30am 32.0 33.4 21.0 52 7.4 WNW 15 - 8 - 1013.0 - 0.0
20/11:00am 33.0 33.6 21.0 49 8.1 W 19 - 10 - 1013.0 - 0.0
20/10:30am 32.0 32.9 20.0 49 8.0 W 15 - 8 - 1014.0 - 0.0
20/10:00am 31.0 31.9 20.0 52 7.3 WNW 15 - 8 - 1014.0 - 0.0
20/09:30am 31.0 31.5 20.0 52 7.3 W 17 - 9 - 1015.0 - 0.0
20/09:00am 31.0 32.4 20.3 53 7.1 W 13 - 7 - 1015.0 1015.0 0.0
20/08:30am 30.0 31.6 20.0 55 6.6 NW 11 - 6 - 1015.0 - 0.0
20/08:00am 29.0 31.0 20.0 58 5.9 NW 9 - 5 - 1015.0 - 0.0
20/07:30am 30.0 32.1 21.0 58 6.0 W 11 - 6 - 1015.0 - 0.0
20/07:00am 29.0 32.0 22.0 66 4.7 WNW 9 - 5 - 1015.0 - 0.0
20/06:30am 28.0 31.4 22.0 70 4.0 W 7 - 4 - 1014.0 - 0.0
20/06:00am 26.1 30.2 23.0 83 2.1 NW 6 - 3 - 1014.0 1013.6 0.0
20/05:30am 24.0 28.7 22.0 88 1.3 CALM 0 - 0 - 1013.0 - 0.0
20/05:00am 24.0 28.0 22.0 88 1.3 WNW 4 - 2 - 1013.0 - 0.0
20/04:30am 24.0 28.3 22.0 88 1.3 NW 2 - 1 - 1013.0 - 0.0
20/04:00am 24.0 28.5 23.0 94 0.7 W 4 - 2 - 1012.0 - 0.0
20/03:30am 24.0 28.7 22.0 88 1.3 CALM 0 - 0 - 1012.0 - 0.0
20/03:00am 24.1 29.0 22.4 90 1.1 CALM 0 - 0 - 1012.0 1011.6 0.0
20/02:30am 24.0 28.7 22.0 88 1.3 CALM 0 - 0 - 1012.0 - 0.0
20/02:00am 24.0 28.3 22.0 88 1.3 SW 2 - 1 - 1011.0 - 0.0
20/01:30am 25.0 29.0 22.0 83 2.0 SW 4 - 2 - 1012.0 - 0.0
20/01:00am 26.0 30.1 23.0 83 2.0 WSW 6 - 3 - 1012.0 - 0.0
20/12:30am 26.0 29.9 23.0 83 2.0 W 7 - 4 - 1012.0 - 0.0
20/12:00am 26.2 30.1 22.9 82 2.2 WSW 7 - 4 - 1012.0 1012.1 0.0
 
Date/Time
WST
Temp
°C
App
Temp
°C
Dew
Point
Rel
Hum
%
Delta-T
°C
Wind Press
QNH
hPa
Press
MSL
hPa
Rain
since 9 am
mm
Dir
 
Spd
km/h
Gust
km/h
Spd
kts
Gust
kts
19/11:30pm 26.0 29.6 23.0 83 2.0 W 9 - 5 - 1013.0 - 0.0
19/11:00pm 26.0 29.4 22.0 78 2.7 W 7 - 4 - 1013.0 - 0.0
19/10:30pm 26.0 29.9 23.0 83 2.0 WSW 7 - 4 - 1013.0 - 0.0
19/10:00pm 27.0 30.0 22.0 74 3.4 WSW 9 - 5 - 1013.0 - 0.0
19/09:30pm 27.0 30.0 22.0 74 3.4 WSW 9 - 5 - 1013.0 - 0.0
19/09:00pm 27.1 30.5 22.7 77 3.0 WSW 9 - 5 - 1013.0 1013.1 0.0
19/08:30pm 27.0 30.6 23.0 79 2.7 W 9 - 5 - 1013.0 - 0.0
19/08:00pm 27.0 30.9 23.0 79 2.7 NW 7 - 4 - 1013.0 - 0.0
19/07:30pm 27.0 30.6 23.0 79 2.7 NW 9 - 5 - 1013.0 - 0.0
19/07:00pm 27.0 30.4 22.0 74 3.4 NW 7 - 4 - 1012.0 - 0.0
19/06:30pm 27.0 30.6 23.0 79 2.7 NW 9 - 5 - 1012.0 - 0.0
19/06:00pm 27.6 30.4 22.3 73 3.6 NNW 11 - 6 - 1012.0 1011.4 0.0
19/05:30pm 28.0 30.6 22.0 70 4.0 NNW 11 - 6 - 1011.0 - 0.0
19/05:00pm 29.0 30.9 22.0 66 4.7 NNW 15 - 8 - 1011.0 - 0.0
19/04:30pm 29.0 30.0 21.0 62 5.3 N 17 - 9 - 1011.0 - 0.0
19/04:00pm 30.0 30.6 21.0 58 6.0 N 19 - 10 - 1010.0 - 0.0
19/03:30pm 30.0 30.6 21.0 58 6.0 N 19 - 10 - 1010.0 - 0.0
19/03:00pm 30.7 30.8 20.0 52 7.1 N 19 - 10 - 1010.0 1010.1 0.0
19/02:30pm 31.0 30.9 20.0 52 7.3 N 20 - 11 - 1010.0 - 0.0

Other Formats:

Comma delimited format used in spreadsheet applications
http://www.bom.gov.au/fwo/IDW60801/IDW60801.95101.axf

JavaScript Object Notation format (JSON) in row-major order
http://www.bom.gov.au/fwo/IDW60801/IDW60801.95101.json